Time;durP1;ratioP1;P1;durP2;ratioP2;P2;SDS_P1;SDS_P2;PMS_P1;PMS_P2;Temp;Humidity;BMP_temperature;BMP_pressure;BME280_temperature;BME280_humidity;BME280_pressure;Samples;Min_cycle;Max_cycle;Signal;HPM_P1;HPM_P2
2022/10/15 00:00:50;;;;;;;70.37;35.07;;;9.90;99.90;;;;;;4769886;30;20209;-84
2022/10/15 00:03:18;;;;;;;64.87;34.57;;;9.80;99.90;;;;;;4770347;30;20247;-83
2022/10/15 00:05:44;;;;;;;63.03;33.17;;;9.90;99.90;;;;;;4772221;30;20208;-83
2022/10/15 00:08:17;;;;;;;65.20;35.33;;;9.90;99.90;;;;;;4787910;30;20643;-83
2022/10/15 00:10:45;;;;;;;60.33;32.47;;;9.80;99.90;;;;;;4787938;30;20215;-84
2022/10/15 00:14:02;;;;;;;62.23;34.23;;;9.80;99.90;;;;;;4787801;29;20218;-84
2022/10/15 00:20:43;;;;;;;64.67;34.70;;;9.70;99.90;;;;;;4751650;30;20200;-85
2022/10/15 00:38:19;;;;;;;70.37;34.73;;;9.50;99.90;;;;;;5166700;24;20295;-84
2022/10/15 00:41:15;;;;;;;67.00;35.10;;;9.50;99.90;;;;;;4715300;30;20689;-84
2022/10/15 00:44:29;;;;;;;67.93;34.53;;;9.40;99.90;;;;;;4717209;30;20585;-84
2022/10/15 00:47:43;;;;;;;71.10;34.07;;;9.40;99.90;;;;;;4701784;30;20309;-85
2022/10/15 00:50:31;;;;;;;68.20;35.17;;;9.40;99.90;;;;;;4717423;30;20701;-84
2022/10/15 01:28:31;;;;;;;61.27;33.03;;;9.30;99.90;;;;;;3365116;24;21351;-83
2022/10/15 01:31:01;;;;;;;65.10;33.97;;;9.20;99.90;;;;;;4703508;30;20228;-83
2022/10/15 01:34:21;;;;;;;65.20;34.10;;;9.10;99.90;;;;;;4732879;30;20212;-83
2022/10/15 01:40:04;;;;;;;65.10;33.57;;;9.10;99.90;;;;;;4887728;24;20238;-84
2022/10/15 01:47:07;;;;;;;65.17;33.43;;;9.10;99.90;;;;;;4704213;30;20305;-84
2022/10/15 01:49:54;;;;;;;66.97;33.93;;;9.10;99.90;;;;;;4706880;30;20310;-84
2022/10/15 01:52:29;;;;;;;67.97;34.13;;;9.10;99.90;;;;;;4749897;24;20249;-84
2022/10/15 01:55:13;;;;;;;67.60;34.60;;;9.10;99.90;;;;;;4752374;30;20229;-85
2022/10/15 01:57:45;;;;;;;66.07;33.90;;;9.20;99.90;;;;;;4755406;30;20703;-84
2022/10/15 02:00:19;;;;;;;66.80;35.53;;;9.10;99.90;;;;;;4753844;30;20279;-85
2022/10/15 02:03:13;;;;;;;65.07;33.53;;;9.10;99.90;;;;;;4765118;30;20229;-84
2022/10/15 02:05:51;;;;;;;63.03;33.67;;;9.10;99.90;;;;;;4769155;30;20263;-84
2022/10/15 02:08:31;;;;;;;63.80;33.10;;;9.10;99.90;;;;;;4787391;24;20240;-84
2022/10/15 02:11:05;;;;;;;67.93;33.47;;;9.00;99.90;;;;;;4767180;30;20219;-83
2022/10/15 02:14:02;;;;;;;63.43;32.27;;;9.00;99.90;;;;;;4772167;30;20673;-83
2022/10/15 02:17:13;;;;;;;67.30;32.83;;;8.90;99.90;;;;;;4771986;30;20250;-84
2022/10/15 02:20:27;;;;;;;60.33;33.63;;;8.90;99.90;;;;;;5026146;24;20244;-84
2022/10/15 02:23:38;;;;;;;60.20;31.80;;;8.90;99.90;;;;;;4772139;30;20212;-84
2022/10/15 02:26:24;;;;;;;62.70;33.93;;;8.90;99.90;;;;;;4772943;30;20596;-84
2022/10/15 02:29:09;;;;;;;65.03;32.80;;;8.90;99.90;;;;;;4735037;30;20241;-84
2022/10/15 02:31:42;;;;;;;63.53;33.67;;;8.80;99.90;;;;;;4803544;24;20760;-84
2022/10/15 02:34:17;;;;;;;63.50;34.00;;;8.80;99.90;;;;;;4756575;30;20620;-83
2022/10/15 02:37:00;;;;;;;64.87;34.40;;;8.70;99.90;;;;;;4771571;30;20233;-84
2022/10/15 02:42:17;;;;;;;61.90;32.10;;;8.60;99.90;;;;;;4864309;24;20689;-84
2022/10/15 02:47:55;;;;;;;58.90;31.33;;;8.60;99.90;;;;;;4808310;29;20307;-84
2022/10/15 02:50:32;;;;;;;56.57;30.73;;;8.40;99.90;;;;;;4777070;29;20223;-84
2022/10/15 02:56:14;;;;;;;51.77;29.60;;;8.30;99.90;;;;;;4892002;24;20296;-83
2022/10/15 02:58:42;;;;;;;53.97;30.17;;;8.30;99.90;;;;;;4792052;29;20584;-84
2022/10/15 03:08:29;;;;;;;53.03;29.60;;;8.10;99.90;;;;;;4763950;30;20215;-84
2022/10/15 03:11:19;;;;;;;56.53;29.63;;;8.10;99.90;;;;;;4759833;30;20227;-84
2022/10/15 03:36:14;;;;;;;66.63;33.37;;;8.00;99.90;;;;;;5361884;24;20244;-82
2022/10/15 03:43:21;;;;;;;65.13;33.43;;;8.20;99.90;;;;;;4791354;29;20290;-84
2022/10/15 04:01:28;;;;;;;67.60;33.60;;;8.30;99.90;;;;;;5186807;24;20692;-84
2022/10/15 04:09:56;;;;;;;70.60;33.37;;;8.20;99.90;;;;;;5003619;24;20239;-85
2022/10/15 04:12:40;;;;;;;60.37;32.07;;;8.30;99.90;;;;;;4806821;29;20195;-85
2022/10/15 04:16:11;;;;;;;67.13;34.43;;;8.30;99.90;;;;;;4774283;24;20246;-84
2022/10/15 04:22:02;;;;;;;63.63;32.07;;;8.30;99.90;;;;;;5018857;24;20748;-85
2022/10/15 04:58:50;;;;;;;60.07;31.60;;;8.50;99.90;;;;;;4744744;27;20717;-84
2022/10/15 05:13:18;;;;;;;66.60;32.70;;;8.60;99.90;;;;;;4849554;24;20238;-82
2022/10/15 05:19:43;;;;;;;64.33;32.03;;;8.60;99.90;;;;;;4829916;24;20584;-83
2022/10/15 05:28:34;;;;;;;66.23;32.67;;;8.60;99.90;;;;;;4823578;24;20606;-83
2022/10/15 05:35:07;;;;;;;66.97;32.53;;;8.60;99.90;;;;;;5161909;24;20258;-84
2022/10/15 06:11:35;;;;;;;62.27;31.70;;;9.50;99.90;;;;;;4789297;29;20319;-82
2022/10/15 06:33:37;;;;;;;68.20;32.27;;;10.40;99.90;;;;;;4708969;30;20223;-83
2022/10/15 06:40:39;;;;;;;58.13;30.40;;;10.70;99.90;;;;;;4819075;24;20236;-82
2022/10/15 06:43:11;;;;;;;53.43;29.60;;;10.80;99.90;;;;;;4792117;29;20619;-83
2022/10/15 06:49:53;;;;;;;53.17;29.70;;;10.90;99.90;;;;;;4975726;24;20306;-82
2022/10/15 06:56:29;;;;;;;50.50;28.03;;;11.00;99.90;;;;;;5130882;24;20243;-80
2022/10/15 06:58:56;;;;;;;52.73;28.17;;;11.10;99.90;;;;;;4807751;29;20615;-79
2022/10/15 07:01:23;;;;;;;53.53;29.43;;;11.10;99.90;;;;;;4791272;29;20207;-82
2022/10/15 07:03:55;;;;;;;46.70;27.50;;;11.10;99.90;;;;;;4773007;30;20211;-81
2022/10/15 07:06:30;;;;;;;52.60;28.03;;;11.20;99.90;;;;;;4782334;29;20276;-80
2022/10/15 07:09:29;;;;;;;52.20;27.93;;;11.20;99.90;;;;;;4780462;29;20196;-80
2022/10/15 07:12:20;;;;;;;51.70;28.10;;;11.30;99.90;;;;;;4735862;30;20200;-80
2022/10/15 07:15:48;;;;;;;50.07;27.97;;;11.30;99.90;;;;;;4780564;29;20211;-80
2022/10/15 07:18:58;;;;;;;45.80;26.60;;;11.40;99.90;;;;;;4718160;30;20215;-80
2022/10/15 07:22:01;;;;;;;52.47;28.30;;;11.50;99.90;;;;;;4722900;30;20697;-80
2022/10/15 07:28:12;;;;;;;48.60;27.43;;;11.60;99.90;;;;;;4716944;30;20298;-81
2022/10/15 07:30:52;;;;;;;47.90;26.57;;;11.90;99.90;;;;;;4708176;30;20203;-81
2022/10/15 07:33:21;;;;;;;43.30;25.63;;;12.00;99.90;;;;;;4717091;30;20229;-79
2022/10/15 07:40:29;;;;;;;45.40;25.87;;;12.10;99.90;;;;;;4708998;30;20203;-80
2022/10/15 07:43:41;;;;;;;45.83;25.20;;;12.30;99.90;;;;;;4706073;30;20695;-77
2022/10/15 07:47:21;;;;;;;44.97;25.13;;;12.50;99.90;;;;;;4644214;30;20214;-80
2022/10/15 07:50:40;;;;;;;44.23;25.60;;;12.70;99.90;;;;;;4625384;30;20274;-80
2022/10/15 07:53:06;;;;;;;44.70;24.70;;;12.90;99.90;;;;;;4562925;31;20220;-77
2022/10/15 07:55:47;;;;;;;41.73;24.27;;;13.20;99.90;;;;;;4573792;31;20275;-76
2022/10/15 07:58:12;;;;;;;43.83;23.43;;;13.10;99.90;;;;;;4545554;31;20306;-77
2022/10/15 08:00:47;;;;;;;46.87;23.80;;;13.10;99.90;;;;;;4544060;31;20206;-78
2022/10/15 08:03:34;;;;;;;40.37;23.80;;;13.10;99.90;;;;;;4545626;31;20221;-78
2022/10/15 08:06:07;;;;;;;38.80;22.67;;;13.10;99.90;;;;;;4546008;31;20261;-79
2022/10/15 08:08:35;;;;;;;38.97;22.80;;;13.20;99.90;;;;;;4645956;24;20267;-77
2022/10/15 08:19:36;;;;;;;39.47;22.27;;;13.60;99.90;;;;;;4817260;24;20292;-80
2022/10/15 08:22:52;;;;;;;39.03;22.20;;;14.20;99.90;;;;;;4759497;30;20293;-80
2022/10/15 08:25:18;;;;;;;38.00;23.10;;;14.10;99.90;;;;;;4698757;30;20274;-81
2022/10/15 08:27:46;;;;;;;37.83;21.40;;;14.00;99.90;;;;;;4701653;30;20210;-78
2022/10/15 08:30:47;;;;;;;38.77;21.33;;;14.10;99.90;;;;;;4643173;30;20218;-81
2022/10/15 08:33:15;;;;;;;37.83;21.87;;;14.50;99.90;;;;;;4618311;30;20240;-81
2022/10/15 08:35:42;;;;;;;35.67;20.67;;;14.80;99.90;;;;;;4637894;30;20218;-77
2022/10/15 08:38:11;;;;;;;39.20;21.13;;;15.10;99.90;;;;;;4640908;30;20740;-81
2022/10/15 08:41:42;;;;;;;37.00;20.33;;;15.20;99.90;;;;;;4623712;30;20316;-82
2022/10/15 08:44:23;;;;;;;36.90;20.53;;;15.40;99.90;;;;;;4632393;30;20240;-80
2022/10/15 08:47:00;;;;;;;32.07;19.90;;;15.90;99.90;;;;;;4631997;30;20213;-79
2022/10/15 08:49:59;;;;;;;34.70;20.00;;;16.10;99.90;;;;;;4632625;30;20682;-82
2022/10/15 08:52:46;;;;;;;33.33;19.40;;;16.30;99.90;;;;;;4631705;30;20206;-80
2022/10/15 08:55:17;;;;;;;30.37;18.90;;;16.50;99.90;;;;;;4632602;30;20710;-80
2022/10/15 08:58:01;;;;;;;31.07;19.53;;;16.90;99.90;;;;;;4620011;31;20330;-83
2022/10/15 09:00:40;;;;;;;33.10;20.00;;;16.90;99.90;;;;;;4601102;31;20690;-83
2022/10/15 09:03:42;;;;;;;34.20;20.07;;;17.00;99.90;;;;;;4678484;30;20392;-82
2022/10/15 09:06:27;;;;;;;32.13;19.87;;;17.00;99.90;;;;;;4688690;30;20270;-84
2022/10/15 09:09:03;;;;;;;32.33;18.83;;;17.30;99.90;;;;;;4756537;30;20208;-86
2022/10/15 09:12:04;;;;;;;27.90;17.03;;;17.50;99.90;;;;;;4757195;30;20196;-82
2022/10/15 09:14:36;;;;;;;28.73;18.23;;;17.70;99.90;;;;;;4755103;30;20534;-78
2022/10/15 09:17:21;;;;;;;30.10;18.30;;;17.80;99.90;;;;;;4753631;30;20221;-82
2022/10/15 09:19:55;;;;;;;31.80;18.03;;;17.80;99.90;;;;;;4762524;30;20576;-82
2022/10/15 09:22:35;;;;;;;30.23;18.23;;;17.70;99.90;;;;;;4743640;30;20736;-81
2022/10/15 09:25:21;;;;;;;30.13;17.70;;;17.40;99.90;;;;;;4767663;24;20244;-82
2022/10/15 09:28:15;;;;;;;30.33;17.27;;;17.30;99.90;;;;;;4763185;30;20553;-82
2022/10/15 09:30:51;;;;;;;30.97;18.27;;;17.10;99.90;;;;;;4759069;30;20268;-81
2022/10/15 09:37:46;;;;;;;27.73;17.80;;;17.10;99.90;;;;;;4780547;30;20770;-81
2022/10/15 09:41:21;;;;;;;30.50;17.47;;;17.30;99.90;;;;;;4775014;29;20201;-82
2022/10/15 09:44:36;;;;;;;26.77;17.00;;;17.10;99.90;;;;;;4758308;30;20213;-83
2022/10/15 09:51:50;;;;;;;27.03;17.57;;;16.80;99.90;;;;;;4716116;30;20226;-81
2022/10/15 09:55:22;;;;;;;27.87;17.07;;;16.90;99.90;;;;;;4874612;24;20319;-80
2022/10/15 09:59:01;;;;;;;29.90;16.83;;;16.70;99.90;;;;;;4771770;29;20284;-81
2022/10/15 10:06:23;;;;;;;27.63;16.47;;;16.60;99.90;;;;;;4695132;30;20613;-78
2022/10/15 10:09:44;;;;;;;28.37;16.40;;;16.60;99.90;;;;;;4708656;30;20219;-77
2022/10/15 10:12:21;;;;;;;29.27;16.80;;;16.70;99.90;;;;;;4644456;30;20218;-79
2022/10/15 10:15:08;;;;;;;26.73;16.33;;;16.50;99.90;;;;;;4718720;30;20214;-78
2022/10/15 10:17:35;;;;;;;26.07;16.50;;;16.50;99.90;;;;;;4667190;30;20693;-82
2022/10/15 10:20:33;;;;;;;26.90;15.60;;;16.50;99.90;;;;;;4693327;30;20220;-80
2022/10/15 10:27:27;;;;;;;27.57;16.30;;;16.60;99.90;;;;;;4785880;24;20931;-81
2022/10/15 10:30:05;;;;;;;26.77;15.73;;;16.70;99.90;;;;;;4739945;30;20301;-81
2022/10/15 10:32:34;;;;;;;27.67;16.33;;;16.80;99.90;;;;;;4730799;30;20221;-81
2022/10/15 10:35:03;;;;;;;26.50;16.40;;;16.90;99.90;;;;;;4751475;30;20217;-80
2022/10/15 10:37:49;;;;;;;25.80;15.97;;;17.10;99.90;;;;;;4737050;30;20589;-79
2022/10/15 10:40:22;;;;;;;26.13;15.97;;;17.30;99.90;;;;;;4749036;30;20702;-79
2022/10/15 10:43:20;;;;;;;27.23;15.73;;;17.40;99.90;;;;;;4736618;30;20253;-78
2022/10/15 10:45:59;;;;;;;25.57;15.30;;;17.70;99.90;;;;;;4748311;30;20202;-79
2022/10/15 10:48:44;;;;;;;26.00;14.73;;;18.10;99.90;;;;;;4734190;30;20221;-77
2022/10/15 10:51:20;;;;;;;26.20;15.47;;;18.60;99.90;;;;;;4750334;30;20248;-78
2022/10/15 10:54:05;;;;;;;23.60;14.73;;;18.90;99.90;;;;;;4748658;30;20206;-80
2022/10/15 10:59:31;;;;;;;23.17;13.73;;;19.80;99.90;;;;;;4735159;30;20206;-80
2022/10/15 11:02:26;;;;;;;22.63;13.73;;;20.30;99.90;;;;;;4732408;30;20210;-83
2022/10/15 11:04:53;;;;;;;21.97;13.30;;;20.70;99.90;;;;;;4730461;30;20202;-79
2022/10/15 11:07:53;;;;;;;21.37;12.83;;;20.80;99.90;;;;;;4761623;30;20212;-82
2022/10/15 11:10:31;;;;;;;18.07;12.67;;;21.20;99.90;;;;;;4767864;30;20219;-80
2022/10/15 11:13:10;;;;;;;22.30;13.27;;;21.90;99.90;;;;;;4755366;30;20216;-86
2022/10/15 11:15:54;;;;;;;20.10;13.43;;;22.30;99.90;;;;;;4773975;30;20218;-77
2022/10/15 11:18:31;;;;;;;22.40;13.60;;;22.40;99.90;;;;;;4762665;30;20742;-78
2022/10/15 11:21:17;;;;;;;24.17;13.90;;;22.20;99.90;;;;;;4764375;30;20201;-78
2022/10/15 11:24:02;;;;;;;20.23;13.07;;;22.20;99.90;;;;;;4770483;30;20272;-86
2022/10/15 11:26:29;;;;;;;21.17;13.73;;;22.30;99.90;;;;;;4770472;30;20255;-84
2022/10/15 11:29:58;;;;;;;19.83;12.67;;;22.90;99.90;;;;;;4769887;30;20216;-84
2022/10/15 11:33:45;;;;;;;18.60;12.70;;;23.30;99.90;;;;;;4706931;30;20779;-83
2022/10/15 11:36:55;;;;;;;21.40;12.97;;;23.40;99.90;;;;;;4701856;30;20294;-80
2022/10/15 11:39:57;;;;;;;19.23;12.43;;;22.40;99.90;;;;;;4700885;30;20268;-80
2022/10/15 11:46:38;;;;;;;17.90;12.33;;;22.60;99.90;;;;;;4709217;30;20202;-82
2022/10/15 11:52:11;;;;;;;17.90;12.77;;;22.30;99.90;;;;;;4816127;24;20249;-84
2022/10/15 11:55:32;;;;;;;18.70;12.50;;;22.70;99.90;;;;;;4736344;30;20245;-84
2022/10/15 12:04:59;;;;;;;20.50;12.80;;;23.20;99.90;;;;;;4787838;30;20184;-83
2022/10/15 12:08:07;;;;;;;18.90;12.77;;;22.10;99.90;;;;;;4773218;30;20257;-85
2022/10/15 12:10:55;;;;;;;18.70;12.53;;;21.60;99.90;;;;;;4772598;30;20212;-85
2022/10/15 12:13:54;;;;;;;18.97;12.47;;;20.90;99.90;;;;;;4788087;30;20211;-84
2022/10/15 12:17:11;;;;;;;18.80;12.87;;;20.60;99.90;;;;;;4786399;30;20208;-83
2022/10/15 12:20:29;;;;;;;18.43;11.87;;;20.20;99.90;;;;;;4751815;30;20216;-83
2022/10/15 12:23:25;;;;;;;18.77;12.07;;;19.70;99.90;;;;;;4786930;30;20193;-84
2022/10/15 12:26:26;;;;;;;21.97;12.50;;;19.90;99.90;;;;;;4717730;30;20234;-81
2022/10/15 12:28:57;;;;;;;21.93;12.60;;;19.80;99.90;;;;;;4718515;30;20276;-81
2022/10/15 12:35:01;;;;;;;17.43;11.57;;;19.40;99.90;;;;;;4733789;30;20243;-82
2022/10/15 12:37:49;;;;;;;20.30;11.93;;;19.10;99.90;;;;;;4716816;30;20245;-80
2022/10/15 12:40:22;;;;;;;19.27;11.33;;;19.00;99.90;;;;;;4733484;30;20695;-79
2022/10/15 12:42:52;;;;;;;17.83;11.33;;;18.90;99.90;;;;;;4733348;30;20206;-81
2022/10/15 12:45:22;;;;;;;18.30;11.67;;;19.00;99.90;;;;;;4733057;30;20206;-80
2022/10/15 12:47:53;;;;;;;19.03;12.00;;;19.00;99.90;;;;;;4718861;30;20230;-80
2022/10/15 12:50:31;;;;;;;20.20;12.30;;;18.90;99.90;;;;;;4732779;30;20213;-81
2022/10/15 12:53:33;;;;;;;19.53;11.73;;;18.80;99.90;;;;;;4730150;30;20227;-81
2022/10/15 12:56:12;;;;;;;18.77;11.20;;;18.70;99.90;;;;;;4718520;30;20304;-81
2022/10/15 13:01:54;;;;;;;19.97;12.10;;;18.70;99.90;;;;;;4769144;30;20623;-81
2022/10/15 13:04:21;;;;;;;17.70;11.63;;;18.80;99.90;;;;;;4754249;30;20216;-79
2022/10/15 13:06:52;;;;;;;23.77;12.27;;;18.90;99.90;;;;;;4754467;30;20675;-79
2022/10/15 13:09:41;;;;;;;18.27;11.60;;;18.90;99.90;;;;;;4772496;24;20241;-81
2022/10/15 13:12:24;;;;;;;18.00;11.43;;;18.90;99.90;;;;;;4769222;30;20702;-81
2022/10/15 13:14:56;;;;;;;17.93;11.73;;;18.90;99.90;;;;;;4769021;30;20292;-82
2022/10/15 13:17:23;;;;;;;20.23;12.37;;;19.00;99.90;;;;;;4769059;30;20320;-75
2022/10/15 13:20:04;;;;;;;20.17;11.73;;;18.90;99.90;;;;;;4770186;30;20240;-78
2022/10/15 13:22:33;;;;;;;20.73;12.40;;;18.90;99.90;;;;;;4768989;30;20231;-78
2022/10/15 13:25:04;;;;;;;21.33;12.57;;;19.00;99.90;;;;;;4768540;30;20213;-79
2022/10/15 13:27:53;;;;;;;19.40;12.30;;;19.00;99.90;;;;;;4735285;30;20658;-79
2022/10/15 13:31:11;;;;;;;19.83;11.70;;;19.10;99.90;;;;;;4735507;30;20205;-80
2022/10/15 13:33:43;;;;;;;18.17;11.37;;;19.20;99.90;;;;;;4749898;30;20205;-80
2022/10/15 13:36:59;;;;;;;18.27;11.30;;;19.20;99.90;;;;;;4746742;24;20187;-80
2022/10/15 13:39:38;;;;;;;21.03;11.67;;;19.30;99.90;;;;;;4809601;29;20188;-82
2022/10/15 13:42:22;;;;;;;17.40;11.70;;;19.20;99.90;;;;;;4793343;29;20521;-81
2022/10/15 13:45:17;;;;;;;21.03;12.20;;;19.30;99.90;;;;;;4792933;29;20203;-79
2022/10/15 13:47:52;;;;;;;21.43;13.03;;;19.20;99.90;;;;;;4793174;29;20216;-80
2022/10/15 13:50:32;;;;;;;21.37;12.97;;;19.00;99.90;;;;;;4793153;29;20199;-80
2022/10/15 13:53:15;;;;;;;21.50;12.70;;;18.90;99.90;;;;;;4790372;30;20543;-82
2022/10/15 13:55:49;;;;;;;21.23;13.00;;;18.80;99.90;;;;;;4774847;30;20295;-80
2022/10/15 13:58:28;;;;;;;21.23;12.70;;;18.70;99.90;;;;;;4791006;29;20234;-80
2022/10/15 14:01:12;;;;;;;17.93;12.30;;;18.60;99.90;;;;;;4789894;30;20207;-80
2022/10/15 14:04:01;;;;;;;19.93;12.67;;;18.60;99.90;;;;;;4774711;30;20216;-79
2022/10/15 14:06:33;;;;;;;22.37;12.83;;;18.50;99.90;;;;;;4774210;30;20204;-79
2022/10/15 14:09:17;;;;;;;17.90;12.60;;;18.50;99.90;;;;;;4789936;30;20208;-83
2022/10/15 14:11:44;;;;;;;20.03;13.10;;;18.50;99.90;;;;;;4790936;30;20648;-81
2022/10/15 14:14:29;;;;;;;19.33;12.63;;;18.40;99.90;;;;;;4775194;30;20565;-83
2022/10/15 14:17:03;;;;;;;21.10;13.63;;;18.40;99.90;;;;;;4774632;29;20204;-82
2022/10/15 14:19:31;;;;;;;21.60;13.60;;;18.40;99.90;;;;;;4774398;30;20315;-82
2022/10/15 14:22:01;;;;;;;19.63;12.60;;;18.40;99.90;;;;;;4774371;30;20298;-84
2022/10/15 14:24:35;;;;;;;20.73;13.20;;;18.40;99.90;;;;;;4774916;30;20655;-82
2022/10/15 14:27:44;;;;;;;19.83;12.93;;;18.40;99.90;;;;;;4774460;30;20739;-81
2022/10/15 14:36:48;;;;;;;20.87;13.50;;;18.10;99.90;;;;;;4790419;29;20283;-82
2022/10/15 14:39:26;;;;;;;22.73;12.83;;;18.10;99.90;;;;;;4773903;30;20695;-83
2022/10/15 14:42:30;;;;;;;21.87;13.10;;;18.00;99.90;;;;;;4788814;30;20610;-80
2022/10/15 14:47:33;;;;;;;20.67;13.10;;;17.90;99.90;;;;;;4954749;24;20242;-80
2022/10/15 14:50:05;;;;;;;18.60;12.83;;;17.90;99.90;;;;;;4792207;29;20260;-80
2022/10/15 14:52:35;;;;;;;20.20;13.30;;;18.00;99.90;;;;;;4778946;29;20231;-80
2022/10/15 14:55:06;;;;;;;20.63;12.97;;;17.90;99.90;;;;;;4773860;30;20239;-79
2022/10/15 14:57:42;;;;;;;20.53;13.10;;;17.90;99.90;;;;;;4774386;30;20560;-79
2022/10/15 15:00:31;;;;;;;21.50;14.00;;;17.90;99.90;;;;;;4774020;30;20700;-80
2022/10/15 15:03:03;;;;;;;17.93;12.27;;;17.80;99.90;;;;;;4773253;30;20236;-80
2022/10/15 15:06:10;;;;;;;20.67;13.13;;;17.90;99.90;;;;;;4773612;30;20605;-79
2022/10/15 15:08:37;;;;;;;23.83;13.23;;;17.80;99.90;;;;;;4773448;30;20671;-79
2022/10/15 15:11:17;;;;;;;20.03;13.57;;;17.70;99.90;;;;;;4759751;30;20224;-80
2022/10/15 15:13:56;;;;;;;23.40;13.40;;;17.70;99.90;;;;;;4773250;30;20204;-81
2022/10/15 15:16:29;;;;;;;23.03;14.20;;;17.70;99.90;;;;;;4773155;30;20211;-79
2022/10/15 15:18:57;;;;;;;21.20;13.53;;;17.60;99.90;;;;;;4789511;29;20686;-80
2022/10/15 15:22:24;;;;;;;22.93;14.00;;;17.60;99.90;;;;;;4773577;30;20192;-81
2022/10/15 15:26:16;;;;;;;21.83;13.50;;;17.60;99.90;;;;;;5187596;24;20254;-80
2022/10/15 15:29:52;;;;;;;22.80;13.80;;;17.50;99.90;;;;;;4772896;30;20208;-80
2022/10/15 15:32:23;;;;;;;20.40;12.67;;;17.40;99.90;;;;;;4780792;24;20256;-79
2022/10/15 15:35:50;;;;;;;20.77;13.73;;;17.40;99.90;;;;;;4845110;24;20616;-80
2022/10/15 15:42:13;;;;;;;;;;;;;;;;;;;;;
2022/10/15 15:44:47;;;;;;;20.47;13.50;;;17.40;99.90;;;;;;4760288;30;20371;-80
2022/10/15 15:52:56;;;;;;;24.10;14.10;;;17.30;99.90;;;;;;4984955;24;20721;-78
2022/10/15 15:55:32;;;;;;;22.83;14.40;;;17.30;99.90;;;;;;4790411;29;20216;-80
2022/10/15 15:58:31;;;;;;;23.70;14.40;;;17.20;99.90;;;;;;4806756;29;20237;-80
2022/10/15 16:00:58;;;;;;;20.10;13.37;;;17.20;99.90;;;;;;4806688;29;20204;-80
2022/10/15 16:03:39;;;;;;;25.30;15.73;;;17.00;99.90;;;;;;4805113;29;20211;-80
2022/10/15 16:06:11;;;;;;;22.33;15.07;;;17.00;99.90;;;;;;4790489;29;20246;-80
2022/10/15 16:08:40;;;;;;;24.93;15.07;;;17.00;99.90;;;;;;4789935;29;20211;-82
2022/10/15 16:11:08;;;;;;;29.47;16.57;;;16.90;99.90;;;;;;4806856;29;20188;-83
2022/10/15 16:13:36;;;;;;;23.70;15.70;;;16.90;99.90;;;;;;4790097;29;20347;-82
2022/10/15 16:16:03;;;;;;;24.37;15.53;;;16.90;99.90;;;;;;4790345;29;20613;-80
2022/10/15 16:18:51;;;;;;;24.77;15.40;;;16.90;99.90;;;;;;4790082;29;20633;-81
2022/10/15 16:22:17;;;;;;;28.27;16.70;;;16.80;99.90;;;;;;4803864;29;20219;-80
2022/10/15 16:24:44;;;;;;;29.27;16.97;;;16.80;99.90;;;;;;4732465;30;20214;-75
2022/10/15 16:27:11;;;;;;;28.20;15.83;;;16.80;99.90;;;;;;4718133;30;20610;-77
2022/10/15 16:29:41;;;;;;;27.87;17.30;;;16.80;99.90;;;;;;4717961;30;20776;-77
2022/10/15 16:32:08;;;;;;;27.87;16.97;;;16.70;99.90;;;;;;4718041;30;20670;-80
2022/10/15 16:34:35;;;;;;;29.47;16.30;;;16.70;99.90;;;;;;4732636;30;20281;-78
2022/10/15 16:37:03;;;;;;;27.13;16.73;;;16.60;99.90;;;;;;4717888;30;20318;-80
2022/10/15 16:39:30;;;;;;;28.53;17.03;;;16.60;99.90;;;;;;4717781;30;20298;-80
2022/10/15 16:41:57;;;;;;;25.50;16.50;;;16.60;99.90;;;;;;4732547;30;20210;-81
2022/10/15 16:44:24;;;;;;;26.27;16.50;;;16.60;99.90;;;;;;4717788;30;20681;-81
2022/10/15 16:46:51;;;;;;;27.27;16.77;;;16.70;99.90;;;;;;4718028;30;20198;-82
2022/10/15 16:49:18;;;;;;;26.53;15.87;;;16.60;99.90;;;;;;4717939;30;20218;-83
2022/10/15 16:51:51;;;;;;;26.23;16.03;;;16.60;99.90;;;;;;4717048;30;20234;-83
2022/10/15 16:54:18;;;;;;;29.10;16.33;;;16.50;99.90;;;;;;4732256;30;20643;-85
2022/10/15 16:56:46;;;;;;;28.87;16.60;;;16.50;99.90;;;;;;4732405;30;20240;-82
2022/10/15 16:59:29;;;;;;;26.27;16.83;;;16.50;99.90;;;;;;4730914;30;20430;-85
2022/10/15 17:02:09;;;;;;;28.13;15.83;;;16.40;99.90;;;;;;4765115;29;20280;-81
2022/10/15 17:04:45;;;;;;;31.07;17.00;;;16.40;99.90;;;;;;4787533;30;20265;-82
2022/10/15 17:07:12;;;;;;;28.13;16.80;;;16.30;99.90;;;;;;4854388;24;20323;-81
2022/10/15 17:09:40;;;;;;;26.07;16.50;;;16.30;99.90;;;;;;4771021;30;20244;-81
2022/10/15 17:12:07;;;;;;;27.13;17.13;;;16.20;99.90;;;;;;4771380;30;20551;-78
2022/10/15 17:14:34;;;;;;;26.93;17.23;;;16.20;99.90;;;;;;4771350;30;20236;-79
2022/10/15 17:17:01;;;;;;;28.87;17.50;;;16.20;99.90;;;;;;4771655;30;20264;-79
2022/10/15 17:19:49;;;;;;;30.57;17.77;;;16.10;99.90;;;;;;4720011;30;20265;-78
2022/10/15 17:22:17;;;;;;;28.37;17.40;;;15.90;99.90;;;;;;4759518;29;20572;-78
2022/10/15 17:24:47;;;;;;;32.37;18.07;;;15.80;99.90;;;;;;4789226;29;20200;-79
2022/10/15 17:27:14;;;;;;;29.77;18.00;;;15.80;99.90;;;;;;4789530;29;20207;-78
2022/10/15 17:29:53;;;;;;;30.37;18.40;;;15.70;99.90;;;;;;4789078;29;20218;-81
2022/10/15 17:32:30;;;;;;;32.33;18.33;;;15.70;99.90;;;;;;4805283;29;20206;-82
2022/10/15 17:35:09;;;;;;;28.60;18.07;;;15.70;99.90;;;;;;4805107;29;20195;-80
2022/10/15 17:37:36;;;;;;;29.50;18.43;;;15.70;99.90;;;;;;4805478;29;20248;-79
2022/10/15 17:40:03;;;;;;;31.17;18.23;;;15.60;99.90;;;;;;4789037;29;20269;-81
2022/10/15 17:42:30;;;;;;;30.70;18.67;;;15.60;99.90;;;;;;4789072;29;20210;-80
2022/10/15 17:44:57;;;;;;;33.63;19.43;;;15.60;99.90;;;;;;4774427;29;20674;-79
2022/10/15 17:47:24;;;;;;;31.70;18.67;;;15.60;99.90;;;;;;4789593;29;20196;-80
2022/10/15 17:49:52;;;;;;;30.60;18.63;;;15.60;99.90;;;;;;4781685;29;20212;-79
2022/10/15 17:52:19;;;;;;;32.90;18.63;;;15.50;99.90;;;;;;4749832;30;20704;-80
2022/10/15 17:55:00;;;;;;;34.83;19.10;;;15.50;99.90;;;;;;4754180;30;20220;-81
2022/10/15 17:57:27;;;;;;;28.57;18.67;;;15.50;99.90;;;;;;4753569;30;20209;-80
2022/10/15 17:59:54;;;;;;;35.37;19.57;;;15.50;99.90;;;;;;4753788;30;20387;-81
2022/10/15 18:02:21;;;;;;;33.30;20.17;;;15.50;99.90;;;;;;4753597;30;20211;-81
2022/10/15 18:04:49;;;;;;;31.00;18.93;;;15.50;99.90;;;;;;4753705;30;20271;-82
2022/10/15 18:07:29;;;;;;;31.00;19.37;;;15.60;99.90;;;;;;4753826;30;20275;-83
2022/10/15 18:09:56;;;;;;;32.83;19.90;;;15.50;99.90;;;;;;4766653;30;20219;-83
2022/10/15 18:12:26;;;;;;;37.13;20.43;;;15.50;99.90;;;;;;4754101;30;20227;-82
2022/10/15 18:14:53;;;;;;;32.87;19.77;;;15.40;99.90;;;;;;4753738;30;20209;-83
2022/10/15 18:17:20;;;;;;;33.37;19.20;;;15.50;99.90;;;;;;4768877;30;20197;-82
2022/10/15 18:19:47;;;;;;;34.37;19.70;;;15.40;99.90;;;;;;4753824;30;20252;-83
2022/10/15 18:22:15;;;;;;;30.50;18.50;;;15.50;99.90;;;;;;4754572;30;20598;-81
2022/10/15 18:24:48;;;;;;;33.13;19.37;;;15.50;99.90;;;;;;4772673;30;20205;-83
2022/10/15 18:27:15;;;;;;;31.87;19.57;;;15.30;99.90;;;;;;4772841;30;20208;-82
2022/10/15 18:29:45;;;;;;;31.90;19.10;;;15.40;99.90;;;;;;4756627;30;20201;-82
2022/10/15 18:32:12;;;;;;;33.60;18.97;;;15.40;99.90;;;;;;4756599;30;20209;-83
2022/10/15 18:34:39;;;;;;;34.57;19.53;;;15.50;99.90;;;;;;4757640;30;20300;-83
2022/10/15 18:37:06;;;;;;;30.77;18.40;;;15.40;99.90;;;;;;4756459;30;20205;-83
2022/10/15 18:39:39;;;;;;;32.20;19.73;;;15.30;99.90;;;;;;4756308;30;20691;-82
2022/10/15 18:42:12;;;;;;;34.50;19.70;;;15.30;99.90;;;;;;4756718;30;20217;-82
2022/10/15 18:44:40;;;;;;;32.87;19.40;;;15.30;99.90;;;;;;4756987;30;20205;-86
2022/10/15 18:47:07;;;;;;;35.00;20.23;;;15.30;99.90;;;;;;4772257;30;20577;-81
2022/10/15 18:49:34;;;;;;;30.27;18.97;;;15.30;99.90;;;;;;4772445;30;20193;-80
2022/10/15 18:52:02;;;;;;;31.70;19.50;;;15.20;99.90;;;;;;4772181;30;20291;-80
2022/10/15 18:54:47;;;;;;;32.13;19.47;;;15.20;99.90;;;;;;4756229;30;20204;-81
2022/10/15 18:57:20;;;;;;;29.60;18.50;;;15.10;99.90;;;;;;4772413;30;20193;-79
2022/10/15 18:59:47;;;;;;;31.83;19.23;;;15.10;99.90;;;;;;4756228;30;20297;-79
2022/10/15 19:02:14;;;;;;;34.83;19.80;;;15.10;99.90;;;;;;4756320;30;20266;-79
2022/10/15 19:04:47;;;;;;;29.67;18.53;;;15.00;99.90;;;;;;4756398;30;20311;-80
2022/10/15 19:07:26;;;;;;;36.77;19.90;;;14.90;99.90;;;;;;4772188;30;20193;-80
2022/10/15 19:10:02;;;;;;;32.97;19.10;;;15.00;99.90;;;;;;4756282;30;20213;-80
2022/10/15 19:12:29;;;;;;;36.77;19.90;;;14.90;99.90;;;;;;4772113;30;20202;-80
2022/10/15 19:14:57;;;;;;;35.00;20.00;;;14.90;99.90;;;;;;4755928;30;20587;-81